Time;durP1;ratioP1;P1;durP2;ratioP2;P2;SDS_P1;SDS_P2;PMS_P1;PMS_P2;Temp;Humidity;BMP_temperature;BMP_pressure;BME280_temperature;BME280_humidity;BME280_pressure;Samples;Min_cycle;Max_cycle;Signal;HPM_P1;HPM_P2
2021/07/11 00:00:37;;;;;;;12.35;5.53;;;;;;;;;;5050017;28;20041;-79
2021/07/11 00:03:03;;;;;;;11.43;5.05;;;;;;;;;;5050024;28;20106;-77
2021/07/11 00:05:30;;;;;;;9.57;5.03;;;;;;;;;;5049477;28;20040;-78
2021/07/11 00:07:56;;;;;;;9.80;5.97;;;;;;;;;;5035576;28;20107;-79
2021/07/11 00:10:23;;;;;;;10.30;6.80;;;;;;;;;;5039986;28;20046;-79
2021/07/11 00:12:51;;;;;;;8.07;6.03;;;;;;;;;;5046848;28;20104;-79
2021/07/11 00:15:18;;;;;;;9.65;6.30;;;;;;;;;;5048268;28;20029;-77
2021/07/11 00:17:45;;;;;;;7.88;5.60;;;;;;;;;;5050102;28;20111;-79
2021/07/11 00:20:12;;;;;;;12.93;6.87;;;;;;;;;;5049270;28;20037;-79
2021/07/11 00:22:38;;;;;;;9.23;5.63;;;;;;;;;;5050804;28;20052;-79
2021/07/11 00:25:05;;;;;;;7.93;5.20;;;;;;;;;;5042036;28;20026;-78
2021/07/11 00:27:31;;;;;;;7.15;4.97;;;;;;;;;;5031910;28;20026;-79
2021/07/11 00:29:57;;;;;;;7.00;5.03;;;;;;;;;;5048654;28;20041;-77
2021/07/11 00:32:23;;;;;;;9.60;5.13;;;;;;;;;;5050583;28;20045;-78
2021/07/11 00:34:49;;;;;;;9.50;5.47;;;;;;;;;;5050240;28;20181;-79
2021/07/11 00:37:15;;;;;;;9.02;5.53;;;;;;;;;;5050911;28;20032;-78
2021/07/11 00:39:41;;;;;;;9.23;5.55;;;;;;;;;;5042134;28;20110;-77
2021/07/11 00:42:11;;;;;;;10.93;6.00;;;;;;;;;;5029720;28;20136;-78
2021/07/11 00:44:37;;;;;;;7.05;5.32;;;;;;;;;;5049586;28;20071;-77
2021/07/11 00:47:03;;;;;;;5.75;4.78;;;;;;;;;;5050193;28;20052;-77
2021/07/11 00:49:29;;;;;;;7.28;4.53;;;;;;;;;;5048246;28;20032;-77
2021/07/11 00:51:55;;;;;;;10.35;5.38;;;;;;;;;;5050281;28;20036;-78
2021/07/11 00:54:22;;;;;;;7.75;5.30;;;;;;;;;;5047938;28;20422;-78
2021/07/11 00:56:48;;;;;;;7.28;5.20;;;;;;;;;;5049796;28;20036;-78
2021/07/11 00:59:14;;;;;;;7.75;5.40;;;;;;;;;;5049895;28;20074;-77
2021/07/11 01:01:46;;;;;;;8.70;6.43;;;;;;;;;;5046024;28;20041;-78
2021/07/11 01:04:18;;;;;;;7.28;5.15;;;;;;;;;;5049566;28;20041;-78
2021/07/11 01:06:47;;;;;;;10.80;5.53;;;;;;;;;;5063659;28;20020;-78
2021/07/11 01:09:16;;;;;;;7.32;5.90;;;;;;;;;;5060725;28;20082;-79
2021/07/11 01:11:46;;;;;;;6.00;5.05;;;;;;;;;;5047723;28;20099;-79
2021/07/11 01:14:14;;;;;;;9.27;5.10;;;;;;;;;;5034417;28;20045;-78
2021/07/11 01:16:41;;;;;;;6.85;4.60;;;;;;;;;;5045864;28;20033;-79
2021/07/11 01:19:07;;;;;;;;;;;;;;;;;;5050327;28;20044;-79
2021/07/11 01:21:35;;;;;;;9.55;5.35;;;;;;;;;;5048429;28;19924;-77
2021/07/11 01:24:02;;;;;;;9.85;5.20;;;;;;;;;;5050408;28;20040;-79
2021/07/11 01:26:28;;;;;;;6.32;5.03;;;;;;;;;;5056255;28;20048;-79
2021/07/11 01:28:55;;;;;;;9.77;5.23;;;;;;;;;;5048235;28;20171;-80
2021/07/11 01:31:22;;;;;;;6.35;5.03;;;;;;;;;;5029182;28;20052;-78
2021/07/11 01:33:48;;;;;;;6.47;5.13;;;;;;;;;;5032458;28;20044;-79
2021/07/11 01:36:16;;;;;;;6.85;5.20;;;;;;;;;;5049178;28;20406;-78
2021/07/11 01:38:43;;;;;;;10.13;4.72;;;;;;;;;;5047425;28;20491;-81
2021/07/11 01:41:11;;;;;;;7.65;4.40;;;;;;;;;;5049211;28;20040;-80
2021/07/11 01:43:38;;;;;;;9.43;4.57;;;;;;;;;;5047423;28;20040;-80
2021/07/11 01:46:05;;;;;;;8.63;5.30;;;;;;;;;;5054169;28;20174;-78
2021/07/11 01:48:32;;;;;;;11.70;5.10;;;;;;;;;;5048173;28;20112;-78
2021/07/11 01:50:59;;;;;;;6.93;4.60;;;;;;;;;;5048627;28;20032;-79
2021/07/11 01:53:32;;;;;;;9.23;4.50;;;;;;;;;;5048670;28;20032;-78
2021/07/11 01:55:59;;;;;;;7.10;4.10;;;;;;;;;;5045768;28;20028;-80
2021/07/11 01:58:25;;;;;;;7.85;4.10;;;;;;;;;;5058840;28;20517;-78
2021/07/11 02:00:52;;;;;;;6.80;4.07;;;;;;;;;;5048777;28;20033;-79
2021/07/11 02:03:19;;;;;;;6.88;4.10;;;;;;;;;;5050443;28;20044;-80
2021/07/11 02:05:48;;;;;;;11.43;4.60;;;;;;;;;;5048428;28;20053;-80
2021/07/11 02:08:15;;;;;;;8.30;4.65;;;;;;;;;;5049618;28;20049;-80
2021/07/11 02:10:42;;;;;;;7.53;4.20;;;;;;;;;;5049583;28;20040;-80
2021/07/11 02:13:11;;;;;;;7.07;3.95;;;;;;;;;;5049587;28;20424;-79
2021/07/11 02:15:38;;;;;;;5.63;4.10;;;;;;;;;;5035131;28;20029;-79
2021/07/11 02:18:05;;;;;;;6.85;4.25;;;;;;;;;;5049629;28;20108;-80
2021/07/11 02:20:31;;;;;;;8.30;4.00;;;;;;;;;;5047915;28;20029;-79
2021/07/11 02:22:59;;;;;;;9.30;4.03;;;;;;;;;;5048133;28;20040;-79
2021/07/11 02:25:25;;;;;;;10.40;4.72;;;;;;;;;;5048021;28;20448;-79
2021/07/11 02:27:51;;;;;;;7.40;4.28;;;;;;;;;;5048938;28;20048;-79
2021/07/11 02:30:18;;;;;;;6.50;3.85;;;;;;;;;;5040162;28;20040;-80
2021/07/11 02:32:48;;;;;;;8.90;4.50;;;;;;;;;;5048280;28;20433;-80
2021/07/11 02:35:15;;;;;;;6.95;4.20;;;;;;;;;;5048415;28;20041;-80
2021/07/11 02:37:45;;;;;;;5.50;4.38;;;;;;;;;;5058074;28;20025;-80
2021/07/11 02:40:11;;;;;;;6.78;4.28;;;;;;;;;;5052523;28;20121;-79
2021/07/11 02:42:38;;;;;;;9.75;4.55;;;;;;;;;;5051427;28;20036;-79
2021/07/11 02:45:04;;;;;;;6.95;4.18;;;;;;;;;;5035127;28;20029;-80
2021/07/11 02:47:31;;;;;;;7.57;4.55;;;;;;;;;;5045615;28;20085;-80
2021/07/11 02:50:04;;;;;;;8.48;4.38;;;;;;;;;;5050131;28;20033;-78
2021/07/11 02:52:30;;;;;;;6.78;3.97;;;;;;;;;;5052342;28;20484;-79
2021/07/11 02:55:07;;;;;;;7.82;4.00;;;;;;;;;;5052496;28;20032;-78
2021/07/11 02:57:34;;;;;;;5.40;3.87;;;;;;;;;;5052249;28;20340;-79
2021/07/11 03:00:00;;;;;;;6.82;4.18;;;;;;;;;;5049096;28;20287;-79
2021/07/11 03:02:27;;;;;;;7.28;3.80;;;;;;;;;;5052159;28;20062;-80
2021/07/11 03:04:54;;;;;;;8.52;4.30;;;;;;;;;;5051775;28;20041;-78
2021/07/11 03:07:20;;;;;;;6.07;3.95;;;;;;;;;;5051465;28;20032;-80
2021/07/11 03:09:46;;;;;;;8.77;4.53;;;;;;;;;;5052581;28;20100;-78
2021/07/11 03:12:13;;;;;;;5.20;4.03;;;;;;;;;;5052096;28;20130;-78
2021/07/11 03:14:39;;;;;;;6.35;3.70;;;;;;;;;;5044131;28;20028;-80
2021/07/11 03:17:05;;;;;;;10.73;4.47;;;;;;;;;;5035499;28;20104;-80
2021/07/11 03:19:37;;;;;;;7.90;4.07;;;;;;;;;;5051926;28;20332;-79
2021/07/11 03:22:04;;;;;;;8.85;4.45;;;;;;;;;;5051937;28;20056;-79
2021/07/11 03:24:31;;;;;;;6.07;4.00;;;;;;;;;;5052998;28;20112;-79
2021/07/11 03:26:57;;;;;;;5.75;3.35;;;;;;;;;;5049998;28;20040;-77
2021/07/11 03:29:29;;;;;;;5.95;3.88;;;;;;;;;;5034938;28;20107;-78
2021/07/11 03:31:56;;;;;;;4.90;3.88;;;;;;;;;;5049572;28;20098;-79
2021/07/11 03:34:26;;;;;;;5.57;3.63;;;;;;;;;;5050017;28;20036;-79
2021/07/11 03:36:52;;;;;;;5.43;3.72;;;;;;;;;;5034146;28;20114;-79
2021/07/11 03:39:19;;;;;;;6.18;4.22;;;;;;;;;;5032235;28;20036;-79
2021/07/11 03:41:45;;;;;;;6.00;3.83;;;;;;;;;;5051785;28;20040;-77
2021/07/11 03:44:12;;;;;;;7.03;3.70;;;;;;;;;;5051271;28;20112;-79
2021/07/11 03:46:39;;;;;;;6.55;4.28;;;;;;;;;;5069740;28;20028;-79
2021/07/11 03:49:08;;;;;;;5.65;3.50;;;;;;;;;;5058172;28;20032;-78
2021/07/11 03:51:36;;;;;;;8.20;3.80;;;;;;;;;;5033355;28;20079;-80
2021/07/11 03:54:02;;;;;;;7.40;3.63;;;;;;;;;;5030681;28;20115;-79
2021/07/11 03:56:30;;;;;;;11.18;4.05;;;;;;;;;;5046829;28;20025;-79
2021/07/11 03:58:57;;;;;;;6.85;3.50;;;;;;;;;;5058398;28;20757;-78
2021/07/11 04:01:29;;;;;;;6.63;3.78;;;;;;;;;;5051218;28;20032;-79
2021/07/11 04:03:56;;;;;;;5.53;3.33;;;;;;;;;;5051344;28;20510;-79
2021/07/11 04:06:23;;;;;;;5.15;3.50;;;;;;;;;;5062639;28;20108;-80
2021/07/11 04:08:50;;;;;;;4.40;3.60;;;;;;;;;;5054215;28;20029;-80
2021/07/11 04:11:17;;;;;;;6.45;4.05;;;;;;;;;;5050854;28;20036;-79
2021/07/11 04:13:43;;;;;;;5.43;3.63;;;;;;;;;;5051449;28;20086;-80
2021/07/11 04:16:09;;;;;;;5.75;3.85;;;;;;;;;;5051002;28;20391;-79
2021/07/11 04:18:42;;;;;;;5.60;3.40;;;;;;;;;;5060577;28;20108;-79
2021/07/11 04:21:08;;;;;;;5.75;3.85;;;;;;;;;;5051527;28;20139;-79
2021/07/11 04:23:35;;;;;;;5.57;3.53;;;;;;;;;;5048800;28;20032;-80
2021/07/11 04:26:02;;;;;;;5.47;3.10;;;;;;;;;;5050359;28;20111;-79
2021/07/11 04:28:32;;;;;;;6.00;3.10;;;;;;;;;;5051012;28;20040;-79
2021/07/11 04:31:00;;;;;;;5.07;3.15;;;;;;;;;;5057557;28;20040;-79
2021/07/11 04:33:26;;;;;;;4.72;3.05;;;;;;;;;;5050340;28;20025;-80
2021/07/11 04:35:52;;;;;;;5.28;3.00;;;;;;;;;;5042056;28;20048;-79
2021/07/11 04:38:18;;;;;;;7.50;3.28;;;;;;;;;;5048351;28;20041;-79
2021/07/11 04:40:44;;;;;;;7.32;3.38;;;;;;;;;;5052562;28;20040;-79
2021/07/11 04:43:14;;;;;;;3.80;2.90;;;;;;;;;;5050202;28;20136;-79
2021/07/11 04:45:40;;;;;;;5.80;3.03;;;;;;;;;;5046306;28;20017;-81
2021/07/11 04:48:06;;;;;;;7.15;2.90;;;;;;;;;;5049243;28;20028;-79
2021/07/11 04:50:33;;;;;;;4.43;2.83;;;;;;;;;;5052698;28;20052;-80
2021/07/11 04:52:59;;;;;;;4.80;2.92;;;;;;;;;;5052142;28;20483;-79
2021/07/11 04:55:25;;;;;;;3.85;3.13;;;;;;;;;;5032681;28;20506;-79
2021/07/11 04:57:51;;;;;;;4.13;2.67;;;;;;;;;;5040246;28;20040;-79
2021/07/11 05:00:17;;;;;;;6.95;2.97;;;;;;;;;;5043694;28;20119;-78
2021/07/11 05:02:44;;;;;;;4.53;2.75;;;;;;;;;;5051183;28;20072;-79
2021/07/11 05:05:10;;;;;;;4.97;3.00;;;;;;;;;;5047221;28;20470;-79
2021/07/11 05:07:37;;;;;;;6.53;2.63;;;;;;;;;;5047115;28;20056;-79
2021/07/11 05:10:06;;;;;;;9.13;3.20;;;;;;;;;;5049613;28;20029;-80
2021/07/11 05:12:33;;;;;;;4.05;2.80;;;;;;;;;;5049610;28;20033;-81
2021/07/11 05:14:59;;;;;;;3.80;3.08;;;;;;;;;;5046916;28;20033;-79
2021/07/11 05:17:25;;;;;;;8.23;3.15;;;;;;;;;;5048579;28;20025;-80
2021/07/11 05:19:51;;;;;;;4.30;2.90;;;;;;;;;;5047562;28;20056;-79
2021/07/11 05:22:17;;;;;;;4.35;2.97;;;;;;;;;;5048919;28;20504;-79
2021/07/11 05:24:43;;;;;;;5.18;3.20;;;;;;;;;;5049603;28;20092;-79
2021/07/11 05:27:09;;;;;;;6.55;3.00;;;;;;;;;;5049513;28;20415;-80
2021/07/11 05:29:35;;;;;;;6.95;4.28;;;;;;;;;;5047640;28;20044;-78
2021/07/11 05:32:01;;;;;;;4.20;2.88;;;;;;;;;;5048762;28;20020;-79
2021/07/11 05:34:27;;;;;;;4.93;2.90;;;;;;;;;;5049584;28;20036;-80
2021/07/11 05:36:53;;;;;;;3.92;2.53;;;;;;;;;;5039265;28;20025;-79
2021/07/11 05:39:19;;;;;;;5.28;2.78;;;;;;;;;;5049809;28;20044;-81
2021/07/11 05:41:46;;;;;;;4.20;2.92;;;;;;;;;;5049851;28;20155;-80
2021/07/11 05:44:12;;;;;;;3.65;2.60;;;;;;;;;;5049481;28;20413;-80
2021/07/11 05:46:38;;;;;;;8.48;3.05;;;;;;;;;;5049372;28;20756;-80
2021/07/11 05:49:04;;;;;;;9.48;3.03;;;;;;;;;;5047697;28;20041;-80
2021/07/11 05:51:30;;;;;;;9.90;3.20;;;;;;;;;;5050304;28;20375;-81
2021/07/11 05:53:57;;;;;;;9.13;3.00;;;;;;;;;;5048311;28;20886;-79
2021/07/11 05:56:23;;;;;;;3.80;3.13;;;;;;;;;;5050494;28;20025;-80
2021/07/11 05:58:49;;;;;;;6.03;3.33;;;;;;;;;;5052662;28;20033;-81
2021/07/11 06:01:15;;;;;;;6.65;3.40;;;;;;;;;;5049164;28;20047;-82
2021/07/11 06:03:41;;;;;;;5.28;3.38;;;;;;;;;;5047851;28;20048;-82
2021/07/11 06:06:07;;;;;;;4.35;3.60;;;;;;;;;;5048119;28;20029;-81
2021/07/11 06:08:33;;;;;;;5.63;3.38;;;;;;;;;;5048792;28;20033;-79
2021/07/11 06:10:59;;;;;;;3.40;2.60;;;;;;;;;;5064712;28;20398;-80
2021/07/11 06:13:25;;;;;;;3.10;2.65;;;;;;;;;;5054600;28;20048;-80
2021/07/11 06:15:52;;;;;;;6.53;2.80;;;;;;;;;;5052173;28;20103;-80
2021/07/11 06:18:18;;;;;;;4.80;2.53;;;;;;;;;;5052043;28;20464;-80
2021/07/11 06:20:44;;;;;;;2.90;2.33;;;;;;;;;;5051080;28;20072;-80
2021/07/11 06:23:11;;;;;;;5.43;2.70;;;;;;;;;;5039037;28;20397;-82
2021/07/11 06:25:38;;;;;;;3.25;2.50;;;;;;;;;;5041830;28;20426;-80
2021/07/11 06:28:04;;;;;;;6.35;2.90;;;;;;;;;;5053530;28;20370;-80
2021/07/11 06:30:30;;;;;;;5.22;3.13;;;;;;;;;;5054519;28;20032;-80
2021/07/11 06:32:56;;;;;;;3.03;2.47;;;;;;;;;;5053049;28;20347;-80
2021/07/11 06:35:23;;;;;;;5.93;2.63;;;;;;;;;;5052500;28;20043;-80
2021/07/11 06:37:50;;;;;;;4.00;2.60;;;;;;;;;;5053276;28;20036;-79
2021/07/11 06:40:17;;;;;;;4.50;2.73;;;;;;;;;;5050438;28;20052;-79
2021/07/11 06:42:44;;;;;;;5.70;3.83;;;;;;;;;;5057035;28;20120;-80
2021/07/11 06:45:10;;;;;;;4.23;3.10;;;;;;;;;;5072506;28;20032;-80
2021/07/11 06:47:37;;;;;;;5.47;3.70;;;;;;;;;;5057730;28;20287;-80
2021/07/11 06:50:04;;;;;;;5.53;3.40;;;;;;;;;;5067736;28;20025;-80
2021/07/11 06:52:30;;;;;;;;;;;;;;;;;;5071415;28;20379;-81
2021/07/11 06:54:56;;;;;;;5.45;3.40;;;;;;;;;;5071588;28;19943;-79
2021/07/11 06:57:23;;;;;;;5.20;3.17;;;;;;;;;;5071956;28;20025;-80
2021/07/11 06:59:49;;;;;;;6.60;2.92;;;;;;;;;;5057685;28;20509;-80
2021/07/11 07:02:15;;;;;;;3.88;2.90;;;;;;;;;;5051359;28;20084;-79
2021/07/11 07:04:41;;;;;;;5.20;3.05;;;;;;;;;;5052403;28;20032;-79
2021/07/11 07:07:07;;;;;;;5.10;3.30;;;;;;;;;;5051740;28;20559;-80
2021/07/11 07:09:33;;;;;;;4.82;3.28;;;;;;;;;;5051662;28;20051;-79
2021/07/11 07:11:59;;;;;;;5.93;3.72;;;;;;;;;;5050838;28;20399;-80
2021/07/11 07:14:25;;;;;;;4.90;3.00;;;;;;;;;;5050144;28;20029;-78
2021/07/11 07:16:51;;;;;;;4.03;2.60;;;;;;;;;;5053171;28;20020;-79
2021/07/11 07:19:17;;;;;;;4.78;2.75;;;;;;;;;;5052713;28;20054;-78
2021/07/11 07:21:43;;;;;;;3.78;2.63;;;;;;;;;;5051333;28;20491;-79
2021/07/11 07:24:09;;;;;;;3.17;2.70;;;;;;;;;;5063491;28;20055;-80
2021/07/11 07:26:35;;;;;;;5.22;3.20;;;;;;;;;;5070547;28;20024;-78
2021/07/11 07:29:02;;;;;;;4.15;2.75;;;;;;;;;;5053464;28;20054;-79
2021/07/11 07:31:28;;;;;;;3.67;2.45;;;;;;;;;;5053163;28;20163;-79
2021/07/11 07:33:54;;;;;;;6.32;2.30;;;;;;;;;;5051036;28;20108;-79
2021/07/11 07:36:20;;;;;;;3.80;2.33;;;;;;;;;;5051567;28;20033;-79
2021/07/11 07:38:46;;;;;;;3.55;2.70;;;;;;;;;;5050992;28;20487;-79
2021/07/11 07:41:12;;;;;;;4.15;2.30;;;;;;;;;;5055251;28;20079;-78
2021/07/11 07:43:38;;;;;;;4.43;2.50;;;;;;;;;;5055293;28;19917;-80
2021/07/11 07:46:04;;;;;;;4.30;2.60;;;;;;;;;;5062995;28;20729;-77
2021/07/11 07:48:30;;;;;;;4.28;2.80;;;;;;;;;;5070629;28;20035;-80
2021/07/11 07:50:58;;;;;;;4.72;2.60;;;;;;;;;;5072216;28;20035;-79
2021/07/11 07:53:24;;;;;;;4.10;2.85;;;;;;;;;;5058996;28;20029;-80
2021/07/11 07:55:50;;;;;;;4.38;2.67;;;;;;;;;;5057340;28;20119;-79
2021/07/11 07:58:17;;;;;;;5.88;2.67;;;;;;;;;;5071834;28;20438;-79
2021/07/11 08:00:43;;;;;;;5.40;2.90;;;;;;;;;;5072000;28;20035;-78
2021/07/11 08:03:09;;;;;;;3.83;2.80;;;;;;;;;;5071449;28;20059;-80
2021/07/11 08:05:35;;;;;;;3.65;2.88;;;;;;;;;;5065626;28;20049;-78
2021/07/11 08:08:01;;;;;;;3.92;2.75;;;;;;;;;;5052601;28;20024;-79
2021/07/11 08:10:27;;;;;;;4.90;2.70;;;;;;;;;;5054046;28;20079;-79
2021/07/11 08:12:53;;;;;;;6.72;2.55;;;;;;;;;;5071950;28;20031;-77
2021/07/11 08:15:19;;;;;;;6.25;2.55;;;;;;;;;;5070558;28;20044;-78
2021/07/11 08:17:46;;;;;;;4.90;2.78;;;;;;;;;;5053607;28;20421;-78
2021/07/11 08:20:12;;;;;;;;;;;;;;;;;;5045123;28;20431;-79
2021/07/11 08:22:38;;;;;;;3.67;2.60;;;;;;;;;;5031479;28;20331;-78
2021/07/11 08:25:07;;;;;;;8.18;3.10;;;;;;;;;;5049432;28;20127;-79
2021/07/11 08:27:33;;;;;;;3.70;2.80;;;;;;;;;;5049353;28;20445;-79
2021/07/11 08:29:59;;;;;;;4.45;2.97;;;;;;;;;;5038162;28;20057;-78
2021/07/11 08:32:25;;;;;;;6.13;2.97;;;;;;;;;;5047500;28;20379;-77
2021/07/11 08:34:51;;;;;;;3.60;2.85;;;;;;;;;;5056380;28;20025;-76
2021/07/11 08:37:17;;;;;;;3.97;2.90;;;;;;;;;;5049532;28;20036;-78
2021/07/11 08:39:43;;;;;;;3.42;2.60;;;;;;;;;;5050443;28;20059;-78
2021/07/11 08:42:10;;;;;;;3.75;2.85;;;;;;;;;;5050216;28;20123;-77
2021/07/11 08:44:36;;;;;;;3.00;2.50;;;;;;;;;;5030886;28;20072;-77
2021/07/11 08:47:02;;;;;;;4.18;2.80;;;;;;;;;;5028922;28;20045;-79
2021/07/11 08:49:28;;;;;;;4.15;2.60;;;;;;;;;;5030881;28;20033;-76
2021/07/11 08:51:57;;;;;;;4.90;2.70;;;;;;;;;;5036922;28;20079;-78
2021/07/11 08:54:23;;;;;;;4.25;2.60;;;;;;;;;;5049243;28;20456;-78
2021/07/11 08:56:49;;;;;;;4.82;2.60;;;;;;;;;;5053580;28;20045;-79
2021/07/11 08:59:15;;;;;;;3.65;2.70;;;;;;;;;;5050257;28;20438;-79
2021/07/11 09:01:41;;;;;;;3.63;2.38;;;;;;;;;;5052561;28;20048;-78
2021/07/11 09:04:11;;;;;;;3.17;2.70;;;;;;;;;;5054094;28;20020;-78
2021/07/11 09:06:40;;;;;;;4.65;2.40;;;;;;;;;;5045280;28;20057;-78
2021/07/11 09:09:07;;;;;;;8.93;5.35;;;;;;;;;;5030852;28;20064;-78
2021/07/11 09:11:33;;;;;;;4.43;2.50;;;;;;;;;;5056133;28;20028;-78
2021/07/11 09:13:59;;;;;;;3.53;2.72;;;;;;;;;;5065089;28;20036;-78
2021/07/11 09:16:25;;;;;;;2.95;2.40;;;;;;;;;;5050471;28;20056;-79
2021/07/11 09:18:52;;;;;;;6.55;2.65;;;;;;;;;;5035726;28;20037;-79
2021/07/11 09:21:18;;;;;;;4.15;2.63;;;;;;;;;;5029162;28;20059;-76
2021/07/11 09:23:44;;;;;;;4.20;2.70;;;;;;;;;;5033118;28;20034;-79
2021/07/11 09:26:17;;;;;;;3.45;2.50;;;;;;;;;;5038923;28;20037;-81
2021/07/11 09:28:51;;;;;;;4.72;2.70;;;;;;;;;;5041076;28;20115;-81
2021/07/11 09:31:18;;;;;;;2.97;2.53;;;;;;;;;;5037849;28;20031;-80
2021/07/11 09:33:44;;;;;;;;;;;;;;;;;;5037290;28;20369;-80
2021/07/11 09:36:18;;;;;;;6.45;4.10;;;;;;;;;;5035054;28;20341;-81
2021/07/11 09:38:48;;;;;;;5.72;2.88;;;;;;;;;;5029139;28;20045;-80
2021/07/11 09:41:15;;;;;;;5.10;3.13;;;;;;;;;;5030459;28;20025;-77
2021/07/11 09:43:43;;;;;;;8.82;3.45;;;;;;;;;;5027845;28;20130;-80
2021/07/11 09:46:13;;;;;;;12.00;3.83;;;;;;;;;;5028378;28;20060;-79
2021/07/11 09:48:39;;;;;;;18.40;6.28;;;;;;;;;;5029613;28;20044;-81
2021/07/11 09:51:32;;;;;;;43.22;10.27;;;;;;;;;;5028948;28;20021;-80
2021/07/11 09:54:08;;;;;;;4.15;2.85;;;;;;;;;;5028659;28;20037;-79
2021/07/11 09:56:37;;;;;;;4.68;3.00;;;;;;;;;;5030167;28;20057;-81
2021/07/11 09:59:05;;;;;;;5.47;2.65;;;;;;;;;;5031063;28;20060;-80
2021/07/11 10:01:32;;;;;;;6.53;2.72;;;;;;;;;;5046612;28;20467;-80
2021/07/11 10:03:58;;;;;;;11.68;5.40;;;;;;;;;;5048745;28;20039;-79
2021/07/11 10:06:25;;;;;;;28.50;7.93;;;;;;;;;;5034619;28;20026;-81
2021/07/11 10:08:51;;;;;;;5.13;3.08;;;;;;;;;;5029781;28;20030;-80
2021/07/11 10:11:17;;;;;;;3.53;2.72;;;;;;;;;;5029973;28;20060;-79
2021/07/11 10:13:43;;;;;;;5.15;3.00;;;;;;;;;;5050404;28;20329;-80
2021/07/11 10:16:11;;;;;;;3.28;2.58;;;;;;;;;;5049403;28;20031;-80
2021/07/11 10:18:38;;;;;;;3.97;2.72;;;;;;;;;;5047698;28;20327;-79
2021/07/11 10:21:04;;;;;;;3.05;2.45;;;;;;;;;;5049826;28;20033;-79
2021/07/11 10:23:33;;;;;;;5.35;2.92;;;;;;;;;;5049792;28;20060;-82
2021/07/11 10:26:01;;;;;;;4.70;2.80;;;;;;;;;;5038712;28;20053;-80
2021/07/11 10:28:28;;;;;;;3.45;2.60;;;;;;;;;;5028126;28;20083;-81
2021/07/11 10:30:54;;;;;;;;;;;;;;;;;;5040818;28;20083;-81
2021/07/11 10:33:21;;;;;;;3.27;2.60;;;;;;;;;;5068271;28;19908;-81
2021/07/11 10:36:19;;;;;;;4.30;2.45;;;;;;;;;;5061428;28;20024;-80
2021/07/11 10:38:51;;;;;;;12.85;8.65;;;;;;;;;;5023873;28;20045;-80
2021/07/11 10:41:23;;;;;;;3.70;2.85;;;;;;;;;;5041363;28;20037;-77
2021/07/11 10:44:12;;;;;;;3.45;3.05;;;;;;;;;;5029579;28;20095;-77
2021/07/11 10:46:44;;;;;;;3.10;2.50;;;;;;;;;;5043520;28;20107;-76
2021/07/11 10:49:11;;;;;;;5.50;2.65;;;;;;;;;;5069575;28;20020;-78
2021/07/11 10:51:41;;;;;;;3.67;2.65;;;;;;;;;;5052601;28;20033;-79
2021/07/11 10:54:17;;;;;;;4.68;2.85;;;;;;;;;;5033688;28;20031;-79
2021/07/11 10:56:43;;;;;;;6.30;2.80;;;;;;;;;;5045901;28;20021;-78
2021/07/11 10:59:09;;;;;;;3.50;2.70;;;;;;;;;;5037777;28;20035;-77
2021/07/11 11:01:38;;;;;;;8.48;3.10;;;;;;;;;;5052559;28;20106;-76
2021/07/11 11:04:04;;;;;;;3.35;2.70;;;;;;;;;;5058307;28;20025;-73
2021/07/11 11:06:39;;;;;;;3.97;2.77;;;;;;;;;;5045385;28;20028;-76
2021/07/11 11:09:05;;;;;;;3.60;2.78;;;;;;;;;;5058805;28;20039;-76
2021/07/11 11:11:31;;;;;;;3.30;2.60;;;;;;;;;;5050808;28;20032;-75
2021/07/11 11:14:04;;;;;;;3.97;2.57;;;;;;;;;;5047403;28;20036;-76
2021/07/11 11:16:40;;;;;;;4.68;2.80;;;;;;;;;;5054078;28;20263;-76
2021/07/11 11:19:13;;;;;;;3.70;2.95;;;;;;;;;;5059823;28;20021;-77
2021/07/11 11:21:39;;;;;;;4.45;3.28;;;;;;;;;;5036656;28;20029;-77
2021/07/11 11:24:05;;;;;;;21.30;10.13;;;;;;;;;;5034035;28;20092;-77
2021/07/11 11:26:31;;;;;;;4.67;3.30;;;;;;;;;;5029355;28;20025;-77
2021/07/11 11:28:58;;;;;;;3.92;2.85;;;;;;;;;;5032093;28;20029;-75
2021/07/11 11:31:25;;;;;;;8.98;2.92;;;;;;;;;;5037302;28;20085;-78
2021/07/11 11:33:53;;;;;;;3.80;2.88;;;;;;;;;;5071810;28;20045;-78
2021/07/11 11:36:22;;;;;;;6.13;3.80;;;;;;;;;;5070300;28;20111;-77
2021/07/11 11:38:48;;;;;;;4.00;2.78;;;;;;;;;;5043568;28;20086;-77
2021/07/11 11:41:15;;;;;;;3.77;2.53;;;;;;;;;;5040794;28;20029;-78
2021/07/11 11:43:42;;;;;;;4.43;2.70;;;;;;;;;;5047168;28;20084;-78
2021/07/11 11:46:08;;;;;;;2.90;2.38;;;;;;;;;;5037175;28;20030;-78
2021/07/11 11:48:35;;;;;;;4.93;2.50;;;;;;;;;;5032440;28;20072;-78
2021/07/11 11:51:02;;;;;;;3.13;2.80;;;;;;;;;;5040117;28;20056;-78
2021/07/11 11:53:29;;;;;;;5.32;2.72;;;;;;;;;;5030636;28;20045;-78
2021/07/11 11:55:56;;;;;;;5.75;3.55;;;;;;;;;;5036183;28;20028;-78
2021/07/11 11:58:25;;;;;;;5.95;3.55;;;;;;;;;;5051975;28;20029;-75
2021/07/11 12:01:04;;;;;;;4.68;3.20;;;;;;;;;;5033274;28;20025;-78
2021/07/11 12:03:30;;;;;;;5.32;3.45;;;;;;;;;;5030130;28;20478;-79
2021/07/11 12:05:59;;;;;;;3.97;3.10;;;;;;;;;;5032295;28;20030;-78
2021/07/11 12:08:26;;;;;;;4.57;2.67;;;;;;;;;;5032407;28;20044;-78
2021/07/11 12:10:52;;;;;;;3.38;2.63;;;;;;;;;;5034483;28;20024;-78
2021/07/11 12:13:25;;;;;;;3.65;2.53;;;;;;;;;;5034019;28;20029;-77
2021/07/11 12:16:01;;;;;;;3.95;2.80;;;;;;;;;;5039042;28;20080;-77
2021/07/11 12:18:27;;;;;;;4.20;2.90;;;;;;;;;;5035610;28;20100;-78
2021/07/11 12:20:55;;;;;;;3.78;2.67;;;;;;;;;;5031931;28;20029;-78
2021/07/11 12:23:23;;;;;;;3.35;2.75;;;;;;;;;;5030284;28;20113;-78
2021/07/11 12:26:16;;;;;;;3.67;2.97;;;;;;;;;;5030761;28;20278;-78
2021/07/11 12:28:50;;;;;;;3.78;2.72;;;;;;;;;;5069546;28;20071;-79
2021/07/11 12:31:23;;;;;;;4.72;2.92;;;;;;;;;;5063744;28;20067;-79
2021/07/11 12:33:56;;;;;;;5.95;2.80;;;;;;;;;;5048103;28;20112;-78
2021/07/11 12:36:22;;;;;;;3.30;2.78;;;;;;;;;;5049968;28;20040;-79
2021/07/11 12:38:48;;;;;;;3.58;3.00;;;;;;;;;;5041652;28;20033;-79
2021/07/11 12:41:14;;;;;;;4.72;2.60;;;;;;;;;;5037430;28;20491;-79
2021/07/11 12:43:52;;;;;;;5.30;2.75;;;;;;;;;;5046593;28;20505;-77
2021/07/11 12:46:23;;;;;;;3.03;2.55;;;;;;;;;;5057229;28;20045;-78
2021/07/11 12:48:51;;;;;;;3.47;2.60;;;;;;;;;;5042282;28;20143;-79
2021/07/11 12:51:27;;;;;;;4.47;2.45;;;;;;;;;;5036461;28;20060;-80
2021/07/11 12:54:10;;;;;;;4.50;2.53;;;;;;;;;;5037279;28;20121;-80
2021/07/11 12:56:38;;;;;;;2.85;2.60;;;;;;;;;;5039741;28;20131;-79
2021/07/11 12:59:05;;;;;;;4.45;2.80;;;;;;;;;;5041330;28;20384;-79
2021/07/11 13:01:32;;;;;;;5.40;2.70;;;;;;;;;;5045998;28;20467;-79
2021/07/11 13:04:01;;;;;;;2.90;2.60;;;;;;;;;;5035459;28;20391;-76
2021/07/11 13:06:38;;;;;;;3.90;2.60;;;;;;;;;;5032542;28;20059;-76
2021/07/11 13:09:05;;;;;;;2.63;2.42;;;;;;;;;;5063127;28;20020;-80
2021/07/11 13:11:31;;;;;;;4.20;2.80;;;;;;;;;;5059704;28;20029;-80
2021/07/11 13:13:57;;;;;;;3.20;2.58;;;;;;;;;;5055300;28;20120;-80
2021/07/11 13:16:23;;;;;;;2.60;2.40;;;;;;;;;;5029302;28;20128;-80
2021/07/11 13:18:49;;;;;;;3.25;2.28;;;;;;;;;;5045860;28;20049;-79
2021/07/11 13:21:16;;;;;;;3.05;2.50;;;;;;;;;;5056030;28;20490;-79
2021/07/11 13:23:42;;;;;;;3.97;2.28;;;;;;;;;;5050434;28;20479;-79
2021/07/11 13:26:08;;;;;;;3.40;2.17;;;;;;;;;;5047873;28;20036;-79
2021/07/11 13:28:34;;;;;;;2.78;2.50;;;;;;;;;;5048250;28;20390;-81
2021/07/11 13:31:00;;;;;;;3.50;2.72;;;;;;;;;;5044394;28;20021;-80
2021/07/11 13:33:26;;;;;;;2.75;2.50;;;;;;;;;;5041718;28;20033;-80
2021/07/11 13:35:52;;;;;;;3.58;2.50;;;;;;;;;;5037953;28;20479;-81
2021/07/11 13:38:18;;;;;;;2.80;2.60;;;;;;;;;;5036086;28;20043;-81
2021/07/11 13:40:44;;;;;;;4.72;2.50;;;;;;;;;;5042261;28;20501;-82
2021/07/11 13:43:10;;;;;;;5.93;2.40;;;;;;;;;;5050082;28;20078;-81
2021/07/11 13:45:40;;;;;;;4.38;2.80;;;;;;;;;;5049800;28;20017;-82
2021/07/11 13:48:10;;;;;;;5.15;2.58;;;;;;;;;;5047684;28;20142;-81
2021/07/11 13:50:36;;;;;;;3.17;2.70;;;;;;;;;;5049550;28;20064;-82
2021/07/11 13:53:02;;;;;;;4.35;2.55;;;;;;;;;;5064361;28;20029;-82
2021/07/11 13:55:28;;;;;;;3.03;2.50;;;;;;;;;;5050023;28;20025;-84
2021/07/11 13:57:54;;;;;;;3.97;2.60;;;;;;;;;;5049116;28;20025;-86
2021/07/11 14:00:21;;;;;;;3.80;3.17;;;;;;;;;;5041315;28;20463;-85
2021/07/11 14:02:47;;;;;;;3.05;2.40;;;;;;;;;;5046142;28;20047;-85
2021/07/11 14:05:14;;;;;;;2.50;2.30;;;;;;;;;;5049769;28;20029;-85
2021/07/11 14:07:40;;;;;;;2.92;2.70;;;;;;;;;;5050536;28;20029;-82
2021/07/11 14:10:06;;;;;;;2.70;2.50;;;;;;;;;;5044628;28;20501;-81
2021/07/11 14:12:32;;;;;;;2.92;2.60;;;;;;;;;;5030663;28;20056;-78
2021/07/11 14:14:59;;;;;;;3.17;2.88;;;;;;;;;;5070676;28;20029;-79
2021/07/11 14:17:25;;;;;;;3.30;2.60;;;;;;;;;;5051820;28;20490;-75
2021/07/11 14:19:51;;;;;;;2.50;2.30;;;;;;;;;;5052768;28;20373;-77
2021/07/11 14:22:17;;;;;;;4.72;2.55;;;;;;;;;;5050134;28;20577;-77
2021/07/11 14:24:43;;;;;;;5.45;2.60;;;;;;;;;;5031279;28;20029;-77
2021/07/11 14:27:10;;;;;;;3.88;2.63;;;;;;;;;;5039595;28;20032;-76
2021/07/11 14:29:36;;;;;;;2.95;2.67;;;;;;;;;;5051591;28;20425;-75
2021/07/11 14:32:02;;;;;;;2.78;2.40;;;;;;;;;;5038838;28;20088;-77
2021/07/11 14:34:28;;;;;;;4.32;2.70;;;;;;;;;;5040557;28;20029;-79
2021/07/11 14:36:54;;;;;;;2.75;2.55;;;;;;;;;;5049065;28;20553;-77
2021/07/11 14:39:20;;;;;;;2.80;2.60;;;;;;;;;;5046174;28;20505;-79
2021/07/11 14:41:46;;;;;;;3.10;2.50;;;;;;;;;;5050874;28;20552;-78
2021/07/11 14:44:13;;;;;;;3.05;2.40;;;;;;;;;;5050263;28;20039;-78